sensor_id;sensor_type;location;lat;lon;timestamp;temperature;humidity
40702;DHT22;26387;50.114;8.662;2023-03-01T00:00:49;4.70;65.60
40702;DHT22;26387;50.114;8.662;2023-03-01T00:03:15;4.60;65.60
40702;DHT22;26387;50.114;8.662;2023-03-01T00:05:44;4.70;65.80
40702;DHT22;26387;50.114;8.662;2023-03-01T00:08:10;4.70;65.90
40702;DHT22;26387;50.114;8.662;2023-03-01T00:10:36;4.70;65.90
40702;DHT22;26387;50.114;8.662;2023-03-01T00:13:01;4.70;65.80
40702;DHT22;26387;50.114;8.662;2023-03-01T00:15:27;4.70;65.80
40702;DHT22;26387;50.114;8.662;2023-03-01T00:17:53;4.60;65.90
40702;DHT22;26387;50.114;8.662;2023-03-01T00:20:18;4.70;66.00
40702;DHT22;26387;50.114;8.662;2023-03-01T00:22:44;4.70;65.90
40702;DHT22;26387;50.114;8.662;2023-03-01T00:25:09;4.70;66.00
40702;DHT22;26387;50.114;8.662;2023-03-01T00:27:35;4.70;66.20
40702;DHT22;26387;50.114;8.662;2023-03-01T00:30:00;4.70;66.20
40702;DHT22;26387;50.114;8.662;2023-03-01T00:32:26;4.70;66.10
40702;DHT22;26387;50.114;8.662;2023-03-01T00:34:51;4.70;66.10
40702;DHT22;26387;50.114;8.662;2023-03-01T00:37:21;4.70;66.10
40702;DHT22;26387;50.114;8.662;2023-03-01T00:39:46;4.70;66.40
40702;DHT22;26387;50.114;8.662;2023-03-01T00:42:12;4.60;66.20
40702;DHT22;26387;50.114;8.662;2023-03-01T00:44:37;4.70;66.60
40702;DHT22;26387;50.114;8.662;2023-03-01T00:47:03;4.60;66.20
40702;DHT22;26387;50.114;8.662;2023-03-01T00:49:28;4.60;66.40
40702;DHT22;26387;50.114;8.662;2023-03-01T00:51:54;4.60;66.30
40702;DHT22;26387;50.114;8.662;2023-03-01T00:54:19;4.70;66.30
40702;DHT22;26387;50.114;8.662;2023-03-01T00:56:45;4.70;66.00
40702;DHT22;26387;50.114;8.662;2023-03-01T00:59:10;4.70;66.00
40702;DHT22;26387;50.114;8.662;2023-03-01T01:01:36;4.60;66.10
40702;DHT22;26387;50.114;8.662;2023-03-01T01:04:04;4.60;66.40
40702;DHT22;26387;50.114;8.662;2023-03-01T01:06:31;4.50;66.70
40702;DHT22;26387;50.114;8.662;2023-03-01T01:08:56;4.50;66.60
40702;DHT22;26387;50.114;8.662;2023-03-01T01:11:23;4.60;66.60
40702;DHT22;26387;50.114;8.662;2023-03-01T01:13:49;4.60;66.60
40702;DHT22;26387;50.114;8.662;2023-03-01T01:16:15;4.60;66.60
40702;DHT22;26387;50.114;8.662;2023-03-01T01:18:41;4.60;66.70
40702;DHT22;26387;50.114;8.662;2023-03-01T01:21:08;4.50;66.90
40702;DHT22;26387;50.114;8.662;2023-03-01T01:23:34;4.50;66.90
40702;DHT22;26387;50.114;8.662;2023-03-01T01:26:05;4.50;67.10
40702;DHT22;26387;50.114;8.662;2023-03-01T01:28:31;4.60;66.60
40702;DHT22;26387;50.114;8.662;2023-03-01T01:30:57;4.70;66.30
40702;DHT22;26387;50.114;8.662;2023-03-01T01:33:22;4.70;66.40
40702;DHT22;26387;50.114;8.662;2023-03-01T01:35:48;4.80;66.40
40702;DHT22;26387;50.114;8.662;2023-03-01T01:38:13;4.80;66.40
40702;DHT22;26387;50.114;8.662;2023-03-01T01:40:46;4.70;66.20
40702;DHT22;26387;50.114;8.662;2023-03-01T01:43:30;4.60;66.60
40702;DHT22;26387;50.114;8.662;2023-03-01T01:45:57;4.70;66.50
40702;DHT22;26387;50.114;8.662;2023-03-01T01:48:26;4.70;66.50
40702;DHT22;26387;50.114;8.662;2023-03-01T01:51:06;4.70;66.50
40702;DHT22;26387;50.114;8.662;2023-03-01T01:53:32;4.70;66.60
40702;DHT22;26387;50.114;8.662;2023-03-01T01:55:58;4.70;66.50
40702;DHT22;26387;50.114;8.662;2023-03-01T01:58:26;4.70;66.50
40702;DHT22;26387;50.114;8.662;2023-03-01T02:00:53;4.70;66.50
40702;DHT22;26387;50.114;8.662;2023-03-01T02:03:23;4.70;66.70
40702;DHT22;26387;50.114;8.662;2023-03-01T02:08:29;4.80;66.70
40702;DHT22;26387;50.114;8.662;2023-03-01T02:10:55;4.70;66.70
40702;DHT22;26387;50.114;8.662;2023-03-01T02:13:21;4.80;66.60
40702;DHT22;26387;50.114;8.662;2023-03-01T02:15:47;4.80;66.60
40702;DHT22;26387;50.114;8.662;2023-03-01T02:18:13;4.80;66.50
40702;DHT22;26387;50.114;8.662;2023-03-01T02:20:51;4.80;66.60
40702;DHT22;26387;50.114;8.662;2023-03-01T02:23:21;4.80;66.60
40702;DHT22;26387;50.114;8.662;2023-03-01T02:30:41;4.70;66.60
40702;DHT22;26387;50.114;8.662;2023-03-01T02:33:28;4.80;66.50
40702;DHT22;26387;50.114;8.662;2023-03-01T02:35:54;4.70;66.60
40702;DHT22;26387;50.114;8.662;2023-03-01T02:38:20;4.70;66.70
40702;DHT22;26387;50.114;8.662;2023-03-01T02:40:45;4.70;66.90
40702;DHT22;26387;50.114;8.662;2023-03-01T02:43:11;4.70;66.90
40702;DHT22;26387;50.114;8.662;2023-03-01T02:45:37;4.70;66.70
40702;DHT22;26387;50.114;8.662;2023-03-01T02:48:03;4.70;66.90
40702;DHT22;26387;50.114;8.662;2023-03-01T02:53:08;4.70;66.60
40702;DHT22;26387;50.114;8.662;2023-03-01T02:55:37;4.80;66.80
40702;DHT22;26387;50.114;8.662;2023-03-01T02:58:03;4.80;66.80
40702;DHT22;26387;50.114;8.662;2023-03-01T03:00:37;4.70;67.00
40702;DHT22;26387;50.114;8.662;2023-03-01T03:03:05;4.60;67.60
40702;DHT22;26387;50.114;8.662;2023-03-01T03:05:31;4.60;67.60
40702;DHT22;26387;50.114;8.662;2023-03-01T03:07:58;4.70;67.10
40702;DHT22;26387;50.114;8.662;2023-03-01T03:10:27;4.70;66.90
40702;DHT22;26387;50.114;8.662;2023-03-01T03:12:54;4.70;66.60
40702;DHT22;26387;50.114;8.662;2023-03-01T03:15:20;4.70;66.70
40702;DHT22;26387;50.114;8.662;2023-03-01T03:17:46;4.70;66.70
40702;DHT22;26387;50.114;8.662;2023-03-01T03:20:12;4.60;66.70
40702;DHT22;26387;50.114;8.662;2023-03-01T03:22:50;4.60;66.80
40702;DHT22;26387;50.114;8.662;2023-03-01T03:25:17;4.50;67.00
40702;DHT22;26387;50.114;8.662;2023-03-01T03:27:43;4.50;67.80
40702;DHT22;26387;50.114;8.662;2023-03-01T03:30:10;4.50;67.40
40702;DHT22;26387;50.114;8.662;2023-03-01T03:32:41;4.50;67.30
40702;DHT22;26387;50.114;8.662;2023-03-01T03:35:08;4.50;67.10
40702;DHT22;26387;50.114;8.662;2023-03-01T03:37:37;4.50;67.40
40702;DHT22;26387;50.114;8.662;2023-03-01T03:40:21;4.50;67.30
40702;DHT22;26387;50.114;8.662;2023-03-01T03:42:47;4.40;67.50
40702;DHT22;26387;50.114;8.662;2023-03-01T03:45:13;4.40;67.90
40702;DHT22;26387;50.114;8.662;2023-03-01T03:47:39;4.30;67.80
40702;DHT22;26387;50.114;8.662;2023-03-01T03:50:04;4.10;68.30
40702;DHT22;26387;50.114;8.662;2023-03-01T03:52:30;4.10;68.50
40702;DHT22;26387;50.114;8.662;2023-03-01T03:54:55;4.20;68.10
40702;DHT22;26387;50.114;8.662;2023-03-01T03:57:21;4.20;68.10
40702;DHT22;26387;50.114;8.662;2023-03-01T03:59:46;4.30;68.00
40702;DHT22;26387;50.114;8.662;2023-03-01T04:02:12;4.20;67.60
40702;DHT22;26387;50.114;8.662;2023-03-01T04:04:37;4.20;68.10
40702;DHT22;26387;50.114;8.662;2023-03-01T04:07:03;4.20;68.10
40702;DHT22;26387;50.114;8.662;2023-03-01T04:09:28;4.10;68.30
40702;DHT22;26387;50.114;8.662;2023-03-01T04:11:55;4.10;68.40
40702;DHT22;26387;50.114;8.662;2023-03-01T04:14:20;4.10;68.50
40702;DHT22;26387;50.114;8.662;2023-03-01T04:16:46;4.10;68.70
40702;DHT22;26387;50.114;8.662;2023-03-01T04:19:14;4.10;68.70
40702;DHT22;26387;50.114;8.662;2023-03-01T04:21:40;4.10;68.50
40702;DHT22;26387;50.114;8.662;2023-03-01T04:24:05;4.10;68.70
40702;DHT22;26387;50.114;8.662;2023-03-01T04:26:32;4.00;68.80
40702;DHT22;26387;50.114;8.662;2023-03-01T04:28:57;4.00;69.00
40702;DHT22;26387;50.114;8.662;2023-03-01T04:31:23;4.00;69.10
40702;DHT22;26387;50.114;8.662;2023-03-01T04:33:49;3.90;69.30
40702;DHT22;26387;50.114;8.662;2023-03-01T04:36:16;3.90;69.30
40702;DHT22;26387;50.114;8.662;2023-03-01T04:38:42;3.90;69.40
40702;DHT22;26387;50.114;8.662;2023-03-01T04:41:12;3.90;69.50
40702;DHT22;26387;50.114;8.662;2023-03-01T04:43:38;4.00;69.40
40702;DHT22;26387;50.114;8.662;2023-03-01T04:46:07;3.90;69.60
40702;DHT22;26387;50.114;8.662;2023-03-01T04:48:38;3.80;69.60
40702;DHT22;26387;50.114;8.662;2023-03-01T04:51:04;3.80;69.90
40702;DHT22;26387;50.114;8.662;2023-03-01T04:53:29;3.70;70.10
40702;DHT22;26387;50.114;8.662;2023-03-01T04:55:55;3.70;70.10
40702;DHT22;26387;50.114;8.662;2023-03-01T04:58:24;3.70;70.20
40702;DHT22;26387;50.114;8.662;2023-03-01T05:00:50;3.80;70.10
40702;DHT22;26387;50.114;8.662;2023-03-01T05:03:16;3.90;70.00
40702;DHT22;26387;50.114;8.662;2023-03-01T05:05:45;3.80;70.00
40702;DHT22;26387;50.114;8.662;2023-03-01T05:08:12;3.90;70.00
40702;DHT22;26387;50.114;8.662;2023-03-01T05:10:45;3.90;69.80
40702;DHT22;26387;50.114;8.662;2023-03-01T05:13:11;3.90;69.80
40702;DHT22;26387;50.114;8.662;2023-03-01T05:15:38;4.00;69.60
40702;DHT22;26387;50.114;8.662;2023-03-01T05:18:04;4.00;69.60
40702;DHT22;26387;50.114;8.662;2023-03-01T05:20:32;3.90;69.60
40702;DHT22;26387;50.114;8.662;2023-03-01T05:22:58;3.90;69.70
40702;DHT22;26387;50.114;8.662;2023-03-01T05:25:24;3.90;70.00
40702;DHT22;26387;50.114;8.662;2023-03-01T05:27:50;3.90;70.90
40702;DHT22;26387;50.114;8.662;2023-03-01T05:30:15;4.00;70.20
40702;DHT22;26387;50.114;8.662;2023-03-01T05:32:43;4.00;69.90
40702;DHT22;26387;50.114;8.662;2023-03-01T05:35:09;4.00;69.50
40702;DHT22;26387;50.114;8.662;2023-03-01T05:37:42;4.10;69.70
40702;DHT22;26387;50.114;8.662;2023-03-01T05:40:09;4.00;69.40
40702;DHT22;26387;50.114;8.662;2023-03-01T05:42:58;4.10;69.50
40702;DHT22;26387;50.114;8.662;2023-03-01T05:45:24;4.00;69.80
40702;DHT22;26387;50.114;8.662;2023-03-01T05:47:50;4.10;69.60
40702;DHT22;26387;50.114;8.662;2023-03-01T05:50:17;4.10;69.20
40702;DHT22;26387;50.114;8.662;2023-03-01T05:52:47;4.10;69.10
40702;DHT22;26387;50.114;8.662;2023-03-01T05:55:14;4.10;69.10
40702;DHT22;26387;50.114;8.662;2023-03-01T05:57:40;4.10;69.00
40702;DHT22;26387;50.114;8.662;2023-03-01T06:00:09;4.20;69.10
40702;DHT22;26387;50.114;8.662;2023-03-01T06:02:35;4.20;69.00
40702;DHT22;26387;50.114;8.662;2023-03-01T06:05:00;4.10;69.10
40702;DHT22;26387;50.114;8.662;2023-03-01T06:07:26;4.10;69.20
40702;DHT22;26387;50.114;8.662;2023-03-01T06:09:52;4.10;69.30
40702;DHT22;26387;50.114;8.662;2023-03-01T06:12:17;4.10;69.10
40702;DHT22;26387;50.114;8.662;2023-03-01T06:14:43;4.00;69.40
40702;DHT22;26387;50.114;8.662;2023-03-01T06:17:08;4.00;69.40
40702;DHT22;26387;50.114;8.662;2023-03-01T06:19:34;4.00;69.50
40702;DHT22;26387;50.114;8.662;2023-03-01T06:21:59;4.00;69.60
40702;DHT22;26387;50.114;8.662;2023-03-01T06:24:25;4.00;69.90
40702;DHT22;26387;50.114;8.662;2023-03-01T06:26:52;3.90;69.70
40702;DHT22;26387;50.114;8.662;2023-03-01T06:29:17;4.00;69.90
40702;DHT22;26387;50.114;8.662;2023-03-01T06:31:43;4.00;70.10
40702;DHT22;26387;50.114;8.662;2023-03-01T06:34:11;4.00;70.10
40702;DHT22;26387;50.114;8.662;2023-03-01T06:36:38;4.00;69.80
40702;DHT22;26387;50.114;8.662;2023-03-01T06:39:04;3.90;69.80
40702;DHT22;26387;50.114;8.662;2023-03-01T06:41:30;3.90;69.90
40702;DHT22;26387;50.114;8.662;2023-03-01T06:43:56;3.90;70.10
40702;DHT22;26387;50.114;8.662;2023-03-01T06:46:21;3.90;70.10
40702;DHT22;26387;50.114;8.662;2023-03-01T06:48:47;4.00;70.00
40702;DHT22;26387;50.114;8.662;2023-03-01T06:51:13;4.10;69.70
40702;DHT22;26387;50.114;8.662;2023-03-01T06:53:38;4.10;69.50
40702;DHT22;26387;50.114;8.662;2023-03-01T06:56:04;4.20;69.30
40702;DHT22;26387;50.114;8.662;2023-03-01T06:58:29;4.20;69.50
40702;DHT22;26387;50.114;8.662;2023-03-01T07:00:58;4.30;69.30
40702;DHT22;26387;50.114;8.662;2023-03-01T07:03:23;4.30;69.20
40702;DHT22;26387;50.114;8.662;2023-03-01T07:05:49;4.40;69.00
40702;DHT22;26387;50.114;8.662;2023-03-01T07:08:17;4.50;68.70
40702;DHT22;26387;50.114;8.662;2023-03-01T07:10:43;4.50;68.50
40702;DHT22;26387;50.114;8.662;2023-03-01T07:13:09;4.50;68.40
40702;DHT22;26387;50.114;8.662;2023-03-01T07:15:35;4.60;68.30
40702;DHT22;26387;50.114;8.662;2023-03-01T07:18:01;4.70;67.90
40702;DHT22;26387;50.114;8.662;2023-03-01T07:20:26;4.80;67.50
40702;DHT22;26387;50.114;8.662;2023-03-01T07:22:52;4.90;67.40
40702;DHT22;26387;50.114;8.662;2023-03-01T07:25:18;4.90;67.50
40702;DHT22;26387;50.114;8.662;2023-03-01T07:27:48;4.90;69.70
40702;DHT22;26387;50.114;8.662;2023-03-01T07:30:13;4.90;70.20
40702;DHT22;26387;50.114;8.662;2023-03-01T07:32:39;4.90;68.90
40702;DHT22;26387;50.114;8.662;2023-03-01T07:35:04;4.90;68.20
40702;DHT22;26387;50.114;8.662;2023-03-01T07:37:30;5.00;68.10
40702;DHT22;26387;50.114;8.662;2023-03-01T07:39:56;5.00;67.80
40702;DHT22;26387;50.114;8.662;2023-03-01T07:42:21;5.00;67.60
40702;DHT22;26387;50.114;8.662;2023-03-01T07:44:46;5.00;67.70
40702;DHT22;26387;50.114;8.662;2023-03-01T07:47:12;4.90;67.90
40702;DHT22;26387;50.114;8.662;2023-03-01T07:49:37;4.90;68.20
40702;DHT22;26387;50.114;8.662;2023-03-01T07:52:03;4.90;68.00
40702;DHT22;26387;50.114;8.662;2023-03-01T07:54:29;5.00;67.70
40702;DHT22;26387;50.114;8.662;2023-03-01T07:56:55;5.00;68.10
40702;DHT22;26387;50.114;8.662;2023-03-01T07:59:21;5.10;68.00
40702;DHT22;26387;50.114;8.662;2023-03-01T08:01:48;5.10;67.50
40702;DHT22;26387;50.114;8.662;2023-03-01T08:04:14;5.10;67.60
40702;DHT22;26387;50.114;8.662;2023-03-01T08:06:40;5.10;67.70
40702;DHT22;26387;50.114;8.662;2023-03-01T08:09:05;5.10;67.90
40702;DHT22;26387;50.114;8.662;2023-03-01T08:11:31;5.10;67.40
40702;DHT22;26387;50.114;8.662;2023-03-01T08:13:56;5.10;67.30
40702;DHT22;26387;50.114;8.662;2023-03-01T08:16:22;5.10;67.40
40702;DHT22;26387;50.114;8.662;2023-03-01T08:18:48;5.00;67.40
40702;DHT22;26387;50.114;8.662;2023-03-01T08:21:15;5.00;67.50
40702;DHT22;26387;50.114;8.662;2023-03-01T08:23:41;5.00;67.50
40702;DHT22;26387;50.114;8.662;2023-03-01T08:28:32;5.10;67.20
40702;DHT22;26387;50.114;8.662;2023-03-01T08:30:58;5.20;67.00
40702;DHT22;26387;50.114;8.662;2023-03-01T08:33:23;5.40;66.60
40702;DHT22;26387;50.114;8.662;2023-03-01T08:35:49;5.40;66.50
40702;DHT22;26387;50.114;8.662;2023-03-01T08:38:15;5.50;66.30
40702;DHT22;26387;50.114;8.662;2023-03-01T08:40:40;5.60;66.10
40702;DHT22;26387;50.114;8.662;2023-03-01T08:43:06;5.70;65.80
40702;DHT22;26387;50.114;8.662;2023-03-01T08:45:34;5.80;65.30
40702;DHT22;26387;50.114;8.662;2023-03-01T08:48:00;5.90;65.60
40702;DHT22;26387;50.114;8.662;2023-03-01T08:57:43;6.10;65.20
40702;DHT22;26387;50.114;8.662;2023-03-01T09:00:09;6.50;63.20
40702;DHT22;26387;50.114;8.662;2023-03-01T09:02:36;6.60;63.10
40702;DHT22;26387;50.114;8.662;2023-03-01T09:05:03;6.70;62.90
40702;DHT22;26387;50.114;8.662;2023-03-01T09:07:29;6.80;62.20
40702;DHT22;26387;50.114;8.662;2023-03-01T09:14:46;6.80;62.00
40702;DHT22;26387;50.114;8.662;2023-03-01T10:03:33;7.00;60.60
40702;DHT22;26387;50.114;8.662;2023-03-01T10:06:01;8.20;57.30
40702;DHT22;26387;50.114;8.662;2023-03-01T10:08:36;8.10;58.10
40702;DHT22;26387;50.114;8.662;2023-03-01T10:11:05;8.20;58.20
40702;DHT22;26387;50.114;8.662;2023-03-01T10:15:58;8.20;58.50
40702;DHT22;26387;50.114;8.662;2023-03-01T10:18:28;8.30;58.10
40702;DHT22;26387;50.114;8.662;2023-03-01T10:55:20;8.50;57.90
40702;DHT22;26387;50.114;8.662;2023-03-01T10:57:48;8.80;57.00
40702;DHT22;26387;50.114;8.662;2023-03-01T11:02:40;8.70;57.00
40702;DHT22;26387;50.114;8.662;2023-03-01T11:07:56;8.60;57.10
40702;DHT22;26387;50.114;8.662;2023-03-01T11:10:23;8.70;57.50
40702;DHT22;26387;50.114;8.662;2023-03-01T11:12:50;8.70;57.30
40702;DHT22;26387;50.114;8.662;2023-03-01T11:15:24;8.80;57.00
40702;DHT22;26387;50.114;8.662;2023-03-01T11:17:49;8.80;56.80
40702;DHT22;26387;50.114;8.662;2023-03-01T11:20:18;8.90;56.90
40702;DHT22;26387;50.114;8.662;2023-03-01T11:22:47;9.00;56.90
40702;DHT22;26387;50.114;8.662;2023-03-01T11:25:15;9.10;56.70
40702;DHT22;26387;50.114;8.662;2023-03-01T11:27:41;9.10;56.30
40702;DHT22;26387;50.114;8.662;2023-03-01T11:35:18;9.20;56.60
40702;DHT22;26387;50.114;8.662;2023-03-01T11:37:55;9.20;56.20
40702;DHT22;26387;50.114;8.662;2023-03-01T11:45:24;9.20;56.10
40702;DHT22;26387;50.114;8.662;2023-03-01T11:47:55;9.30;55.80
40702;DHT22;26387;50.114;8.662;2023-03-01T12:03:09;9.70;53.60
40702;DHT22;26387;50.114;8.662;2023-03-01T12:08:20;9.80;52.30
40702;DHT22;26387;50.114;8.662;2023-03-01T12:13:23;10.00;51.70
40702;DHT22;26387;50.114;8.662;2023-03-01T12:37:54;10.60;50.90
40702;DHT22;26387;50.114;8.662;2023-03-01T14:56:57;17.70;33.80
40702;DHT22;26387;50.114;8.662;2023-03-01T14:59:23;15.10;38.10
40702;DHT22;26387;50.114;8.662;2023-03-01T15:01:50;14.40;39.00
40702;DHT22;26387;50.114;8.662;2023-03-01T15:04:16;13.90;39.80
40702;DHT22;26387;50.114;8.662;2023-03-01T15:09:11;13.50;40.60
40702;DHT22;26387;50.114;8.662;2023-03-01T15:11:37;13.00;43.20
40702;DHT22;26387;50.114;8.662;2023-03-01T15:14:25;13.00;42.10
40702;DHT22;26387;50.114;8.662;2023-03-01T15:16:50;12.80;41.80
40702;DHT22;26387;50.114;8.662;2023-03-01T15:19:16;12.70;41.90
40702;DHT22;26387;50.114;8.662;2023-03-01T15:21:44;12.50;42.10
40702;DHT22;26387;50.114;8.662;2023-03-01T15:29:17;12.40;42.30
40702;DHT22;26387;50.114;8.662;2023-03-01T15:31:47;12.20;42.90
40702;DHT22;26387;50.114;8.662;2023-03-01T15:46:28;12.10;42.50
40702;DHT22;26387;50.114;8.662;2023-03-01T15:48:56;12.00;43.30
40702;DHT22;26387;50.114;8.662;2023-03-01T15:51:27;11.90;43.90
40702;DHT22;26387;50.114;8.662;2023-03-01T15:53:54;11.90;43.20
40702;DHT22;26387;50.114;8.662;2023-03-01T15:56:19;11.70;43.70
40702;DHT22;26387;50.114;8.662;2023-03-01T15:58:45;11.60;44.10
40702;DHT22;26387;50.114;8.662;2023-03-01T16:01:12;11.60;44.40
40702;DHT22;26387;50.114;8.662;2023-03-01T16:03:41;11.50;44.70
40702;DHT22;26387;50.114;8.662;2023-03-01T16:06:08;11.50;44.60
40702;DHT22;26387;50.114;8.662;2023-03-01T16:08:34;11.40;44.60
40702;DHT22;26387;50.114;8.662;2023-03-01T16:11:02;11.40;44.70
40702;DHT22;26387;50.114;8.662;2023-03-01T16:13:30;11.40;44.90
40702;DHT22;26387;50.114;8.662;2023-03-01T16:15:56;11.40;44.90
40702;DHT22;26387;50.114;8.662;2023-03-01T16:18:22;11.20;44.70
40702;DHT22;26387;50.114;8.662;2023-03-01T16:20:47;11.10;44.60
40702;DHT22;26387;50.114;8.662;2023-03-01T16:23:14;11.00;44.70
40702;DHT22;26387;50.114;8.662;2023-03-01T16:25:40;10.90;44.60
40702;DHT22;26387;50.114;8.662;2023-03-01T16:28:06;10.90;44.80
40702;DHT22;26387;50.114;8.662;2023-03-01T16:30:34;10.80;45.00
40702;DHT22;26387;50.114;8.662;2023-03-01T16:33:00;10.80;45.20
40702;DHT22;26387;50.114;8.662;2023-03-01T16:35:26;10.70;45.40
40702;DHT22;26387;50.114;8.662;2023-03-01T16:37:51;10.60;45.40
40702;DHT22;26387;50.114;8.662;2023-03-01T16:40:20;10.60;45.70
40702;DHT22;26387;50.114;8.662;2023-03-01T16:42:48;10.60;45.90
40702;DHT22;26387;50.114;8.662;2023-03-01T16:45:18;10.50;46.10
40702;DHT22;26387;50.114;8.662;2023-03-01T16:47:43;10.40;46.20
40702;DHT22;26387;50.114;8.662;2023-03-01T16:50:09;10.40;46.40
40702;DHT22;26387;50.114;8.662;2023-03-01T16:52:35;10.40;46.40
40702;DHT22;26387;50.114;8.662;2023-03-01T16:55:02;10.40;46.40
40702;DHT22;26387;50.114;8.662;2023-03-01T16:57:29;10.20;46.50
40702;DHT22;26387;50.114;8.662;2023-03-01T16:59:55;10.20;46.60
40702;DHT22;26387;50.114;8.662;2023-03-01T17:02:20;10.10;46.70
40702;DHT22;26387;50.114;8.662;2023-03-01T17:04:52;10.10;46.80
40702;DHT22;26387;50.114;8.662;2023-03-01T17:07:18;10.00;46.90
40702;DHT22;26387;50.114;8.662;2023-03-01T17:09:44;10.00;46.90
40702;DHT22;26387;50.114;8.662;2023-03-01T17:12:11;10.00;47.20
40702;DHT22;26387;50.114;8.662;2023-03-01T17:14:37;10.00;47.20
40702;DHT22;26387;50.114;8.662;2023-03-01T17:17:04;9.90;47.30
40702;DHT22;26387;50.114;8.662;2023-03-01T17:19:29;9.80;47.50
40702;DHT22;26387;50.114;8.662;2023-03-01T17:21:56;9.80;47.70
40702;DHT22;26387;50.114;8.662;2023-03-01T17:24:22;9.80;47.80
40702;DHT22;26387;50.114;8.662;2023-03-01T17:26:51;9.80;47.90
40702;DHT22;26387;50.114;8.662;2023-03-01T17:29:16;9.70;48.20
40702;DHT22;26387;50.114;8.662;2023-03-01T17:31:43;9.60;48.30
40702;DHT22;26387;50.114;8.662;2023-03-01T17:34:08;9.60;48.40
40702;DHT22;26387;50.114;8.662;2023-03-01T17:36:34;9.60;48.60
40702;DHT22;26387;50.114;8.662;2023-03-01T17:39:09;9.50;48.70
40702;DHT22;26387;50.114;8.662;2023-03-01T17:41:34;9.50;49.00
40702;DHT22;26387;50.114;8.662;2023-03-01T17:44:00;9.40;49.10
40702;DHT22;26387;50.114;8.662;2023-03-01T17:46:25;9.40;49.30
40702;DHT22;26387;50.114;8.662;2023-03-01T17:48:51;9.30;49.40
40702;DHT22;26387;50.114;8.662;2023-03-01T17:51:17;9.30;49.70
40702;DHT22;26387;50.114;8.662;2023-03-01T17:53:43;9.20;49.80
40702;DHT22;26387;50.114;8.662;2023-03-01T17:56:08;9.20;49.80
40702;DHT22;26387;50.114;8.662;2023-03-01T17:58:34;9.10;50.00
40702;DHT22;26387;50.114;8.662;2023-03-01T18:01:10;9.20;50.00
40702;DHT22;26387;50.114;8.662;2023-03-01T18:03:36;9.10;50.10
40702;DHT22;26387;50.114;8.662;2023-03-01T18:06:02;9.10;50.20
40702;DHT22;26387;50.114;8.662;2023-03-01T18:08:27;9.10;50.20
40702;DHT22;26387;50.114;8.662;2023-03-01T18:10:59;9.00;50.60
40702;DHT22;26387;50.114;8.662;2023-03-01T18:13:24;9.00;50.60
40702;DHT22;26387;50.114;8.662;2023-03-01T18:15:50;8.90;50.90
40702;DHT22;26387;50.114;8.662;2023-03-01T18:18:15;8.90;50.80
40702;DHT22;26387;50.114;8.662;2023-03-01T18:20:41;8.80;50.80
40702;DHT22;26387;50.114;8.662;2023-03-01T18:23:06;8.90;51.00
40702;DHT22;26387;50.114;8.662;2023-03-01T18:25:32;8.80;51.10
40702;DHT22;26387;50.114;8.662;2023-03-01T18:27:58;8.70;51.10
40702;DHT22;26387;50.114;8.662;2023-03-01T18:30:23;8.70;51.30
40702;DHT22;26387;50.114;8.662;2023-03-01T18:32:49;8.60;51.30
40702;DHT22;26387;50.114;8.662;2023-03-01T18:35:21;8.60;51.10
40702;DHT22;26387;50.114;8.662;2023-03-01T18:37:46;8.50;51.30
40702;DHT22;26387;50.114;8.662;2023-03-01T18:40:11;8.50;51.60
40702;DHT22;26387;50.114;8.662;2023-03-01T18:42:38;8.40;51.60
40702;DHT22;26387;50.114;8.662;2023-03-01T18:45:03;8.40;51.70
40702;DHT22;26387;50.114;8.662;2023-03-01T18:47:29;8.30;51.90
40702;DHT22;26387;50.114;8.662;2023-03-01T18:49:54;8.20;52.00
40702;DHT22;26387;50.114;8.662;2023-03-01T18:52:20;8.20;52.20
40702;DHT22;26387;50.114;8.662;2023-03-01T18:54:45;8.10;52.20
40702;DHT22;26387;50.114;8.662;2023-03-01T18:57:11;8.10;52.40
40702;DHT22;26387;50.114;8.662;2023-03-01T18:59:36;8.00;52.20
40702;DHT22;26387;50.114;8.662;2023-03-01T19:02:02;8.00;52.20
40702;DHT22;26387;50.114;8.662;2023-03-01T19:04:27;8.00;52.30
40702;DHT22;26387;50.114;8.662;2023-03-01T19:06:53;8.00;52.20
40702;DHT22;26387;50.114;8.662;2023-03-01T19:09:18;8.00;52.00
40702;DHT22;26387;50.114;8.662;2023-03-01T19:11:44;7.90;52.10
40702;DHT22;26387;50.114;8.662;2023-03-01T19:14:09;7.90;52.00
40702;DHT22;26387;50.114;8.662;2023-03-01T19:16:34;8.00;52.10
40702;DHT22;26387;50.114;8.662;2023-03-01T19:19:02;7.90;52.40
40702;DHT22;26387;50.114;8.662;2023-03-01T19:21:28;7.90;52.40
40702;DHT22;26387;50.114;8.662;2023-03-01T19:23:54;7.80;52.40
40702;DHT22;26387;50.114;8.662;2023-03-01T19:26:21;7.80;52.50
40702;DHT22;26387;50.114;8.662;2023-03-01T19:28:47;7.80;52.50
40702;DHT22;26387;50.114;8.662;2023-03-01T19:31:13;7.80;52.60
40702;DHT22;26387;50.114;8.662;2023-03-01T19:33:39;7.80;52.70
40702;DHT22;26387;50.114;8.662;2023-03-01T19:36:05;7.80;52.70
40702;DHT22;26387;50.114;8.662;2023-03-01T19:38:32;7.80;52.90
40702;DHT22;26387;50.114;8.662;2023-03-01T19:41:02;7.70;53.00
40702;DHT22;26387;50.114;8.662;2023-03-01T19:43:28;7.60;53.20
40702;DHT22;26387;50.114;8.662;2023-03-01T19:45:54;7.60;53.50
40702;DHT22;26387;50.114;8.662;2023-03-01T19:48:20;7.60;53.70
40702;DHT22;26387;50.114;8.662;2023-03-01T19:50:46;7.50;54.60
40702;DHT22;26387;50.114;8.662;2023-03-01T19:53:12;7.50;54.30
40702;DHT22;26387;50.114;8.662;2023-03-01T19:55:37;7.40;54.40
40702;DHT22;26387;50.114;8.662;2023-03-01T19:58:03;7.40;54.60
40702;DHT22;26387;50.114;8.662;2023-03-01T20:00:28;7.40;54.70
40702;DHT22;26387;50.114;8.662;2023-03-01T20:02:54;7.40;54.70
40702;DHT22;26387;50.114;8.662;2023-03-01T20:05:19;7.50;54.60
40702;DHT22;26387;50.114;8.662;2023-03-01T20:07:45;7.50;54.80
40702;DHT22;26387;50.114;8.662;2023-03-01T20:10:10;7.40;55.10
40702;DHT22;26387;50.114;8.662;2023-03-01T20:12:36;7.50;55.70
40702;DHT22;26387;50.114;8.662;2023-03-01T20:15:02;7.50;55.20
40702;DHT22;26387;50.114;8.662;2023-03-01T20:17:27;7.40;55.30
40702;DHT22;26387;50.114;8.662;2023-03-01T20:19:53;7.40;55.60
40702;DHT22;26387;50.114;8.662;2023-03-01T20:22:18;7.30;55.70
40702;DHT22;26387;50.114;8.662;2023-03-01T20:24:44;7.30;56.20
40702;DHT22;26387;50.114;8.662;2023-03-01T20:27:09;7.20;56.20
40702;DHT22;26387;50.114;8.662;2023-03-01T20:29:35;7.20;56.40
40702;DHT22;26387;50.114;8.662;2023-03-01T20:32:00;7.20;56.30
40702;DHT22;26387;50.114;8.662;2023-03-01T20:34:26;7.30;56.40
40702;DHT22;26387;50.114;8.662;2023-03-01T20:36:51;7.30;56.40
40702;DHT22;26387;50.114;8.662;2023-03-01T20:39:17;7.30;56.50
40702;DHT22;26387;50.114;8.662;2023-03-01T20:41:42;7.30;56.60
40702;DHT22;26387;50.114;8.662;2023-03-01T20:44:08;7.20;56.60
40702;DHT22;26387;50.114;8.662;2023-03-01T20:46:34;7.20;56.80
40702;DHT22;26387;50.114;8.662;2023-03-01T20:49:00;7.10;56.80
40702;DHT22;26387;50.114;8.662;2023-03-01T20:51:25;7.10;57.00
40702;DHT22;26387;50.114;8.662;2023-03-01T20:53:51;7.00;56.90
40702;DHT22;26387;50.114;8.662;2023-03-01T20:56:17;6.80;57.30
40702;DHT22;26387;50.114;8.662;2023-03-01T20:58:43;6.80;57.50
40702;DHT22;26387;50.114;8.662;2023-03-01T21:01:09;6.80;57.50